Time;durP1;ratioP1;P1;durP2;ratioP2;P2;SDS_P1;SDS_P2;PMS_P1;PMS_P2;Temp;Humidity;BMP_temperature;BMP_pressure;BME280_temperature;BME280_humidity;BME280_pressure;Samples;Min_cycle;Max_cycle;Signal;HPM_P1;HPM_P2
2022/03/18 00:00:51;;;;;;;11.43;5.90;;;;;;;-0.28;90.73;103755.09;5033832;28;20114;-91
2022/03/18 00:03:16;;;;;;;16.27;5.97;;;;;;;-0.36;90.18;103750.38;5032730;28;20380;-90
2022/03/18 00:05:42;;;;;;;12.73;5.40;;;;;;;-0.44;90.37;103755.38;5030635;28;20032;-91
2022/03/18 00:08:07;;;;;;;12.30;6.00;;;;;;;-0.50;91.46;103760.13;5030442;28;20100;-90
2022/03/18 00:10:33;;;;;;;10.50;5.35;;;;;;;-0.57;92.12;103755.44;5031669;28;20033;-89
2022/03/18 00:12:58;;;;;;;10.47;4.83;;;;;;;-0.55;92.56;103764.06;5032943;28;20049;-90
2022/03/18 00:15:24;;;;;;;13.67;5.40;;;;;;;-0.61;92.82;103765.34;5031760;28;20057;-90
2022/03/18 00:17:53;;;;;;;10.38;5.15;;;;;;;-0.58;92.97;103775.69;5031893;28;20021;-90
2022/03/18 00:20:19;;;;;;;12.15;5.47;;;;;;;-0.68;92.43;103772.00;5032151;28;20292;-90
2022/03/18 00:22:45;;;;;;;13.03;4.87;;;;;;;-0.70;92.97;103779.16;5031374;28;20060;-90
2022/03/18 00:25:11;;;;;;;12.40;4.75;;;;;;;-0.71;93.34;103785.38;5031978;28;20464;-90
2022/03/18 00:27:38;;;;;;;11.48;5.00;;;;;;;-0.75;94.08;103784.78;5030531;28;20029;-91
2022/03/18 00:30:09;;;;;;;10.27;4.60;;;;;;;-0.78;93.54;103788.47;5032252;28;20100;-90
2022/03/18 00:32:40;;;;;;;11.98;5.05;;;;;;;-0.87;93.19;103778.56;5032501;28;20029;-90
2022/03/18 00:35:10;;;;;;;11.82;4.65;;;;;;;-0.88;93.68;103771.63;5031212;28;20022;-90
2022/03/18 00:37:40;;;;;;;10.80;4.53;;;;;;;-0.85;93.74;103776.69;5013234;28;20084;-91
2022/03/18 00:40:07;;;;;;;14.25;4.30;;;;;;;-0.92;94.05;103764.91;5026028;28;20080;-90
2022/03/18 00:42:32;;;;;;;12.27;4.50;;;;;;;-0.94;93.86;103775.53;5032763;28;20029;-90
2022/03/18 00:45:00;;;;;;;13.93;4.00;;;;;;;-0.94;93.72;103774.72;5039302;28;20073;-90
2022/03/18 00:52:54;;;;;;;8.98;3.92;;;;;;;-1.10;93.60;103783.69;5032170;28;20048;-91
2022/03/18 00:55:19;;;;;;;12.77;3.73;;;;;;;-1.20;93.34;103790.53;5030664;28;20026;-91
2022/03/18 00:57:44;;;;;;;13.33;3.90;;;;;;;-1.23;93.94;103796.84;5030516;28;20455;-91
2022/03/18 01:00:10;;;;;;;10.33;3.90;;;;;;;-1.31;94.31;103791.25;5031317;28;20106;-90
2022/03/18 01:02:35;;;;;;;14.00;4.35;;;;;;;-1.31;94.94;103800.97;5031591;28;20021;-91
2022/03/18 01:05:01;;;;;;;10.87;3.47;;;;;;;-1.41;94.24;103798.94;5030745;28;20560;-91
2022/03/18 01:07:26;;;;;;;11.23;3.87;;;;;;;-1.44;94.07;103809.66;5029921;28;20025;-91
2022/03/18 01:09:52;;;;;;;8.45;3.80;;;;;;;-1.46;93.84;103810.72;5031651;28;20025;-91
2022/03/18 01:12:17;;;;;;;14.10;4.17;;;;;;;-1.56;94.34;103816.63;5030364;28;20396;-91
2022/03/18 01:14:42;;;;;;;10.13;4.10;;;;;;;-1.55;94.89;103820.09;5031598;28;20022;-91
2022/03/18 01:17:08;;;;;;;14.53;4.07;;;;;;;-1.60;95.78;103814.28;5029105;28;20029;-91
2022/03/18 01:19:33;;;;;;;16.75;4.10;;;;;;;-1.58;96.03;103809.75;5015973;28;20160;-91
2022/03/18 01:21:58;;;;;;;6.60;3.77;;;;;;;-1.60;95.63;103809.88;5011558;28;20076;-91
2022/03/18 01:24:24;;;;;;;9.27;3.93;;;;;;;-1.66;95.66;103804.19;5019427;28;20033;-91
2022/03/18 01:26:49;;;;;;;8.63;3.90;;;;;;;-1.70;95.22;103811.44;5028818;28;20155;-92
2022/03/18 01:29:14;;;;;;;10.00;3.70;;;;;;;-1.69;95.90;103805.22;5030766;28;20022;-90
2022/03/18 01:31:40;;;;;;;12.43;4.00;;;;;;;-1.61;96.15;103812.59;5029843;28;20029;-88
2022/03/18 01:34:05;;;;;;;10.73;3.83;;;;;;;-1.65;96.16;103814.59;5031026;28;20026;-88
2022/03/18 01:36:30;;;;;;;6.85;3.67;;;;;;;-1.71;95.81;103817.63;5027825;28;20123;-89
2022/03/18 01:38:56;;;;;;;10.90;4.20;;;;;;;-1.75;96.10;103817.00;5028928;28;20119;-88
2022/03/18 01:41:21;;;;;;;9.90;3.67;;;;;;;-1.72;96.50;103815.94;5018863;28;20172;-89
2022/03/18 01:43:47;;;;;;;10.88;4.28;;;;;;;-1.70;96.55;103821.94;5029955;28;20444;-88
2022/03/18 01:46:14;;;;;;;10.63;3.90;;;;;;;-1.70;96.35;103825.44;5030041;28;20085;-88
2022/03/18 01:48:40;;;;;;;12.30;3.90;;;;;;;-1.71;96.40;103821.13;5030389;28;20792;-89
2022/03/18 01:51:07;;;;;;;11.10;4.13;;;;;;;-1.65;96.46;103827.75;5029408;28;20096;-90
2022/03/18 01:53:38;;;;;;;8.60;3.83;;;;;;;-1.66;96.16;103819.97;5030788;28;20021;-88
2022/03/18 01:56:05;;;;;;;8.85;3.83;;;;;;;-1.66;96.22;103823.44;5027703;28;20032;-88
2022/03/18 01:58:31;;;;;;;7.32;3.58;;;;;;;-1.68;96.36;103822.69;5030631;28;20502;-88
2022/03/18 02:00:57;;;;;;;15.93;4.20;;;;;;;-1.69;96.36;103829.75;5026681;28;20026;-87
2022/03/18 02:03:22;;;;;;;9.73;3.73;;;;;;;-1.74;96.12;103828.38;5030494;28;20026;-87
2022/03/18 02:05:48;;;;;;;11.43;4.10;;;;;;;-1.78;96.28;103817.19;5030643;28;20392;-88
2022/03/18 02:08:17;;;;;;;10.27;4.27;;;;;;;-1.72;96.32;103811.53;5029630;28;20284;-88
2022/03/18 02:10:43;;;;;;;13.50;4.40;;;;;;;-1.71;96.42;103822.88;5029372;28;20033;-88
2022/03/18 02:13:08;;;;;;;11.05;4.18;;;;;;;-1.75;96.30;103822.25;5030079;28;20089;-89
2022/03/18 02:15:34;;;;;;;11.53;4.13;;;;;;;-1.83;96.15;103822.75;5029210;28;20109;-89
2022/03/18 02:17:59;;;;;;;9.77;3.90;;;;;;;-1.87;95.75;103828.34;5029020;28;20025;-88
2022/03/18 02:20:24;;;;;;;12.00;4.17;;;;;;;-1.98;95.94;103829.84;5028997;28;20025;-88
2022/03/18 02:22:50;;;;;;;9.83;4.33;;;;;;;-1.95;96.32;103835.88;5030003;28;20138;-88
2022/03/18 02:25:15;;;;;;;11.10;4.63;;;;;;;-1.96;96.65;103834.19;5029671;28;20048;-88
2022/03/18 02:27:52;;;;;;;10.17;3.87;;;;;;;-1.98;96.77;103840.38;5029067;28;20029;-88
2022/03/18 02:30:19;;;;;;;11.00;4.30;;;;;;;-2.07;96.32;103835.72;5028539;28;20319;-87
2022/03/18 02:32:44;;;;;;;11.20;4.32;;;;;;;-2.09;96.25;103842.88;5029231;28;20128;-87
2022/03/18 02:35:10;;;;;;;9.10;4.05;;;;;;;-2.13;96.64;103842.22;5029858;28;20532;-88
2022/03/18 02:37:35;;;;;;;12.57;4.00;;;;;;;-2.18;96.72;103839.03;5029500;28;20167;-89
2022/03/18 02:40:02;;;;;;;10.90;4.40;;;;;;;-2.14;97.15;103826.53;5031456;28;20020;-88
2022/03/18 02:42:27;;;;;;;11.25;4.28;;;;;;;-2.06;97.72;103837.41;5028329;28;20022;-89
2022/03/18 02:44:53;;;;;;;10.23;4.83;;;;;;;-2.04;97.88;103853.94;5031386;28;20056;-89
2022/03/18 02:47:19;;;;;;;9.48;4.43;;;;;;;-2.03;97.79;103853.00;5028992;28;20123;-90
2022/03/18 02:49:44;;;;;;;15.30;4.20;;;;;;;-2.03;97.31;103853.00;5030421;28;20029;-89
2022/03/18 02:52:10;;;;;;;7.97;4.55;;;;;;;-2.06;97.34;103845.31;5030148;28;20030;-89
2022/03/18 02:54:35;;;;;;;9.13;3.83;;;;;;;-2.06;97.34;103845.31;5030264;28;20032;-88
2022/03/18 02:57:00;;;;;;;10.23;4.60;;;;;;;-2.00;97.42;103850.13;5029622;28;20038;-88
2022/03/18 02:59:26;;;;;;;12.20;5.03;;;;;;;-1.99;97.49;103856.25;5028873;28;20044;-88
2022/03/18 03:01:51;;;;;;;6.80;3.70;;;;;;;-2.07;97.22;103843.63;5030360;28;20033;-89
2022/03/18 03:04:17;;;;;;;9.75;4.50;;;;;;;-2.10;97.09;103853.50;5011323;28;20449;-89
2022/03/18 03:09:27;;;;;;;10.32;4.40;;;;;;;-2.19;97.29;103868.06;5028436;28;20037;-89
2022/03/18 03:11:52;;;;;;;10.80;4.45;;;;;;;-2.23;97.18;103870.00;5029628;28;20026;-89
2022/03/18 03:14:17;;;;;;;9.40;4.33;;;;;;;-2.31;96.83;103860.00;5011552;28;20025;-89
2022/03/18 03:16:43;;;;;;;9.90;4.17;;;;;;;-2.33;96.76;103872.38;5029527;28;20040;-89
2022/03/18 03:19:08;;;;;;;5.40;3.87;;;;;;;-2.40;96.66;103880.75;5018119;28;20030;-89
2022/03/18 03:21:34;;;;;;;7.80;4.33;;;;;;;-2.44;97.08;103872.22;5029467;28;20025;-89
2022/03/18 03:24:00;;;;;;;12.82;4.70;;;;;;;-2.46;97.79;103864.44;5028075;28;20044;-89
2022/03/18 03:26:25;;;;;;;9.18;4.15;;;;;;;-2.38;97.79;103865.75;5027546;28;20381;-89
2022/03/18 03:28:50;;;;;;;8.00;4.33;;;;;;;-2.36;97.89;103867.31;5028480;28;20590;-89
2022/03/18 03:31:16;;;;;;;9.33;4.23;;;;;;;-2.37;97.65;103878.75;5029223;28;20044;-89
2022/03/18 03:33:41;;;;;;;12.13;4.40;;;;;;;-2.50;97.21;103873.47;5028357;28;20037;-89
2022/03/18 03:36:07;;;;;;;8.40;4.35;;;;;;;-2.52;97.54;103874.47;5028130;28;20044;-89
2022/03/18 03:38:33;;;;;;;9.73;4.10;;;;;;;-2.56;97.23;103883.50;5028510;28;20061;-89
2022/03/18 03:40:58;;;;;;;8.37;4.20;;;;;;;-2.55;97.94;103877.28;5030915;28;20825;-89
2022/03/18 03:43:23;;;;;;;8.30;4.60;;;;;;;-2.49;98.05;103880.41;5030817;28;20022;-89
2022/03/18 03:45:49;;;;;;;9.43;4.20;;;;;;;-2.48;97.67;103881.22;5031027;28;20518;-89
2022/03/18 03:48:14;;;;;;;11.13;4.13;;;;;;;-2.51;98.31;103891.91;5031249;28;20049;-89
2022/03/18 03:50:40;;;;;;;9.32;4.57;;;;;;;-2.47;98.15;103899.53;5033481;28;20029;-89
2022/03/18 03:53:07;;;;;;;8.73;4.13;;;;;;;-2.54;97.92;103898.22;5031365;28;20033;-89
2022/03/18 03:55:34;;;;;;;8.70;4.20;;;;;;;-2.55;98.17;103900.91;5033440;28;20504;-89
2022/03/18 03:57:59;;;;;;;9.95;4.15;;;;;;;-2.52;98.24;103903.38;5013924;28;20017;-89
2022/03/18 04:00:25;;;;;;;10.97;4.50;;;;;;;-2.50;98.28;103898.88;5032661;28;20512;-89
2022/03/18 06:05:49;;;;;;;13.85;5.78;;;;;;;-2.77;100.00;104010.72;5133001;23;20046;-88
2022/03/18 06:15:12;;;;;;;19.63;6.77;;;;;;;-2.76;100.00;104019.44;5008874;28;20045;-88
2022/03/18 18:47:50;;;;;;;8.90;4.30;;;;;;;8.19;65.76;104221.50;5722908;23;20039;-91
2022/03/18 18:50:32;;;;;;;8.63;4.25;;;;;;;7.96;65.74;104196.31;4927404;29;20059;-94
2022/03/18 19:43:15;;;;;;;6.20;4.03;;;;;;;7.57;68.96;104242.94;4918474;29;20472;-92
2022/03/18 21:08:32;;;;;;;11.73;4.72;;;;;;;6.53;74.76;104276.13;5791762;23;20118;-91
2022/03/18 21:41:39;;;;;;;13.93;5.53;;;;;;;5.79;77.53;104259.81;4954537;29;20046;-91
2022/03/18 22:38:39;;;;;;;12.57;4.72;;;;;;;5.51;81.51;104278.31;4955484;23;20110;-91
2022/03/18 22:41:09;;;;;;;11.63;5.28;;;;;;;5.43;81.74;104244.44;4934181;29;20035;-91
2022/03/18 22:43:34;;;;;;;20.45;5.57;;;;;;;5.41;81.52;104246.38;4934398;29;20511;-91
2022/03/18 22:46:00;;;;;;;13.10;5.33;;;;;;;5.52;81.82;104262.19;4933234;29;20031;-90
2022/03/18 22:51:47;;;;;;;12.27;5.13;;;;;;;5.33;81.90;104244.41;4934107;29;20275;-91
2022/03/18 22:57:35;;;;;;;10.13;5.07;;;;;;;5.26;81.63;104249.47;5145444;23;20400;-91
2022/03/18 23:00:26;;;;;;;10.00;5.27;;;;;;;5.45;82.11;104275.22;4875218;29;20373;-90
2022/03/18 23:02:53;;;;;;;10.20;5.55;;;;;;;5.41;82.84;104270.31;4874882;29;20405;-91
2022/03/18 23:05:18;;;;;;;16.63;6.20;;;;;;;5.35;82.83;104262.88;5143997;23;20014;-92
2022/03/18 23:08:27;;;;;;;15.00;5.97;;;;;;;5.33;82.39;104276.34;4932149;29;20040;-90
2022/03/18 23:13:48;;;;;;;14.80;6.20;;;;;;;5.13;83.32;104259.47;4934289;29;20141;-91
2022/03/18 23:20:20;;;;;;;11.43;6.18;;;;;;;5.14;83.55;104263.81;4938077;29;20038;-91
2022/03/18 23:23:32;;;;;;;14.70;4.68;;;;;;;5.10;83.61;104260.59;4933934;29;20035;-90
2022/03/18 23:36:35;;;;;;;13.48;6.28;;;;;;;4.96;84.00;104261.00;4913230;29;20095;-90
2022/03/18 23:42:23;;;;;;;12.43;6.38;;;;;;;4.78;84.86;104243.03;4856281;29;20132;-91
2022/03/18 23:47:24;;;;;;;12.30;6.80;;;;;;;4.73;85.57;104247.09;5129101;23;20067;-91
2022/03/18 23:53:34;;;;;;;16.08;6.35;;;;;;;4.65;86.10;104251.25;4931806;29;20086;-91
2022/03/18 23:58:56;;;;;;;12.50;5.90;;;;;;;4.68;86.02;104272.22;5797386;23;20379;-92
